Time;durP1;ratioP1;P1;durP2;ratioP2;P2;SDS_P1;SDS_P2;PMS_P1;PMS_P2;Temp;Humidity;BMP_temperature;BMP_pressure;BME280_temperature;BME280_humidity;BME280_pressure;Samples;Min_cycle;Max_cycle;Signal;HPM_P1;HPM_P2
2022/09/16 00:01:14;;;;;;;4.10;1.90;;;14.20;99.90;;;;;;5036329;28;20038;-70
2022/09/16 00:03:40;;;;;;;;;;;14.20;99.90;;;;;;5037193;28;20029;-70
2022/09/16 00:06:06;;;;;;;3.75;1.85;;;14.20;99.90;;;;;;5036456;28;19905;-70
2022/09/16 00:08:32;;;;;;;5.60;2.40;;;14.20;99.90;;;;;;5036673;28;20478;-71
2022/09/16 00:11:01;;;;;;;3.95;2.53;;;14.10;99.90;;;;;;5035024;28;20041;-71
2022/09/16 00:13:28;;;;;;;3.83;2.22;;;14.10;99.90;;;;;;5036228;28;20064;-71
2022/09/16 00:15:53;;;;;;;4.65;2.30;;;14.10;99.90;;;;;;5036262;28;20421;-70
2022/09/16 00:18:19;;;;;;;3.38;2.00;;;14.10;99.90;;;;;;5036436;28;20033;-70
2022/09/16 00:20:48;;;;;;;4.93;2.40;;;14.00;99.90;;;;;;5036325;28;20041;-70
2022/09/16 00:23:13;;;;;;;3.95;2.20;;;14.00;99.90;;;;;;5036400;28;20478;-70
2022/09/16 00:25:40;;;;;;;4.28;2.55;;;14.00;99.90;;;;;;5036098;28;20080;-70
2022/09/16 00:28:06;;;;;;;4.80;2.40;;;14.00;99.90;;;;;;5034939;28;20036;-70
2022/09/16 00:30:32;;;;;;;6.00;2.42;;;14.00;99.90;;;;;;5035927;28;20057;-71
2022/09/16 00:32:57;;;;;;;3.53;2.33;;;14.00;99.90;;;;;;5036201;28;20065;-70
2022/09/16 00:35:23;;;;;;;2.83;1.95;;;13.90;99.90;;;;;;5035965;28;20029;-70
2022/09/16 00:37:49;;;;;;;2.85;1.80;;;13.90;99.90;;;;;;5034702;28;20543;-71
2022/09/16 00:40:15;;;;;;;3.08;2.08;;;13.90;99.90;;;;;;5035816;28;20417;-70
2022/09/16 00:42:40;;;;;;;3.40;1.90;;;13.90;99.90;;;;;;5034161;28;20481;-70
2022/09/16 00:45:16;;;;;;;2.88;1.73;;;13.90;99.90;;;;;;5034597;28;20033;-70
2022/09/16 00:47:49;;;;;;;4.18;2.38;;;14.00;99.90;;;;;;5036222;28;20026;-70
2022/09/16 00:50:20;;;;;;;3.22;2.10;;;14.00;99.90;;;;;;5035670;28;20142;-70
2022/09/16 00:52:46;;;;;;;;;;;14.00;99.90;;;;;;5035931;28;20057;-70
2022/09/16 00:55:17;;;;;;;6.38;2.05;;;14.00;99.90;;;;;;5035559;28;19949;-70
2022/09/16 00:57:44;;;;;;;4.43;2.42;;;14.00;99.90;;;;;;5035843;28;20100;-70
2022/09/16 01:00:12;;;;;;;3.78;1.95;;;14.00;99.90;;;;;;5035716;28;20092;-70
2022/09/16 01:02:39;;;;;;;5.03;2.13;;;14.00;99.90;;;;;;5035226;28;20444;-70
2022/09/16 01:05:11;;;;;;;4.13;2.10;;;13.90;99.90;;;;;;5035341;28;20506;-70
2022/09/16 01:07:42;;;;;;;;;;;13.80;99.90;;;;;;5034521;28;20048;-70
2022/09/16 01:10:08;;;;;;;6.10;2.28;;;13.70;99.90;;;;;;5035338;28;19905;-70
2022/09/16 01:12:35;;;;;;;5.03;2.38;;;13.60;99.90;;;;;;5017824;28;20371;-70
2022/09/16 01:15:03;;;;;;;3.95;2.30;;;13.60;99.90;;;;;;5035677;28;20060;-70
2022/09/16 01:17:58;;;;;;;3.65;2.05;;;13.60;99.90;;;;;;5035381;28;20018;-70
2022/09/16 01:20:48;;;;;;;5.78;2.20;;;13.50;99.90;;;;;;5033781;28;20433;-70
2022/09/16 01:23:39;;;;;;;4.00;2.40;;;13.40;99.90;;;;;;5035545;28;20029;-70
2022/09/16 01:26:32;;;;;;;3.90;1.90;;;13.40;99.90;;;;;;5034989;28;20025;-70
2022/09/16 01:29:27;;;;;;;3.53;2.20;;;13.40;99.90;;;;;;5034949;28;20025;-70
2022/09/16 01:32:08;;;;;;;2.83;1.80;;;13.40;99.90;;;;;;5034498;28;20520;-71
2022/09/16 01:34:37;;;;;;;4.10;2.33;;;13.50;99.90;;;;;;5035061;28;20116;-71
2022/09/16 01:37:10;;;;;;;3.88;2.10;;;13.50;99.90;;;;;;5033741;28;20029;-71
2022/09/16 01:39:47;;;;;;;4.18;1.80;;;13.60;99.90;;;;;;5034909;28;20018;-71
2022/09/16 01:42:33;;;;;;;4.75;2.05;;;13.60;99.90;;;;;;5035633;28;20021;-71
2022/09/16 01:45:16;;;;;;;3.20;2.25;;;13.60;99.90;;;;;;5034607;28;20105;-71
2022/09/16 01:48:07;;;;;;;4.32;2.00;;;13.70;99.90;;;;;;5034870;28;20109;-71
2022/09/16 01:50:49;;;;;;;4.43;2.55;;;13.70;99.90;;;;;;5035024;28;20026;-71
2022/09/16 01:53:33;;;;;;;4.07;2.15;;;13.70;99.90;;;;;;5033922;28;20033;-71
2022/09/16 01:56:15;;;;;;;3.85;2.13;;;13.70;99.90;;;;;;5034728;28;20017;-71
2022/09/16 01:59:09;;;;;;;5.63;2.78;;;13.70;99.90;;;;;;5034674;28;20018;-71
2022/09/16 02:01:44;;;;;;;3.42;2.33;;;13.70;99.90;;;;;;5033922;28;20053;-72
2022/09/16 02:04:18;;;;;;;4.38;2.30;;;13.70;99.90;;;;;;5034522;28;20478;-71
2022/09/16 02:06:46;;;;;;;4.53;2.60;;;13.70;99.90;;;;;;5032943;28;20056;-71
2022/09/16 02:09:26;;;;;;;3.67;2.35;;;13.70;99.90;;;;;;5034132;28;20049;-72
2022/09/16 02:11:54;;;;;;;5.18;2.70;;;13.70;99.90;;;;;;5034190;28;20034;-71
2022/09/16 02:14:30;;;;;;;3.58;2.10;;;13.60;99.90;;;;;;5034248;28;20093;-72
2022/09/16 02:17:18;;;;;;;4.78;2.42;;;13.60;99.90;;;;;;5034078;28;20382;-72
2022/09/16 02:19:52;;;;;;;8.98;3.00;;;13.50;99.90;;;;;;5034007;28;20386;-71
2022/09/16 02:22:29;;;;;;;5.00;3.25;;;13.40;99.90;;;;;;5033922;28;20021;-71
2022/09/16 02:24:57;;;;;;;5.78;2.97;;;13.30;99.90;;;;;;5034205;28;20021;-71
2022/09/16 02:27:23;;;;;;;5.00;2.90;;;13.30;99.90;;;;;;5033863;28;20481;-71
2022/09/16 02:29:59;;;;;;;4.22;2.90;;;13.20;99.90;;;;;;5033866;28;20033;-71
2022/09/16 02:32:28;;;;;;;5.85;2.92;;;13.20;99.90;;;;;;5033792;28;20022;-71
2022/09/16 02:34:55;;;;;;;7.35;2.90;;;13.10;99.90;;;;;;5033049;28;20025;-71
2022/09/16 02:37:34;;;;;;;4.32;2.50;;;13.10;99.90;;;;;;5034224;28;20021;-72
2022/09/16 02:40:05;;;;;;;4.35;2.70;;;13.20;99.90;;;;;;5033944;28;20044;-71
2022/09/16 02:42:32;;;;;;;6.40;3.00;;;13.20;99.90;;;;;;5033681;28;20029;-72
2022/09/16 02:44:58;;;;;;;5.95;2.70;;;13.30;99.90;;;;;;5033931;28;20025;-72
2022/09/16 02:47:48;;;;;;;4.50;2.67;;;13.30;99.90;;;;;;5033811;28;20406;-72
2022/09/16 02:50:51;;;;;;;3.05;2.17;;;13.30;99.90;;;;;;5033822;28;20044;-72
2022/09/16 02:53:52;;;;;;;4.07;2.60;;;13.30;99.90;;;;;;5032129;28;20116;-72
2022/09/16 02:56:28;;;;;;;5.07;2.27;;;13.30;99.90;;;;;;5033154;28;20033;-72
2022/09/16 02:58:54;;;;;;;5.57;2.90;;;13.20;99.90;;;;;;5033994;28;20256;-71
2022/09/16 03:01:21;;;;;;;4.38;2.53;;;13.10;99.90;;;;;;5033251;28;20030;-72
2022/09/16 03:03:47;;;;;;;3.95;2.60;;;13.00;99.90;;;;;;5033365;28;20032;-71
2022/09/16 03:06:22;;;;;;;3.80;2.70;;;13.00;99.90;;;;;;5033537;28;20033;-72
2022/09/16 03:08:50;;;;;;;4.15;2.50;;;12.90;99.90;;;;;;5033296;28;20020;-72
2022/09/16 03:11:21;;;;;;;3.67;2.67;;;12.90;99.90;;;;;;5033240;28;20440;-72
2022/09/16 03:14:10;;;;;;;3.42;2.47;;;13.00;99.90;;;;;;5033524;28;20378;-71
2022/09/16 03:16:48;;;;;;;4.93;2.10;;;13.00;99.90;;;;;;5032393;28;20471;-72
2022/09/16 03:19:41;;;;;;;3.83;2.30;;;13.00;99.90;;;;;;5033532;28;20017;-72
2022/09/16 03:22:21;;;;;;;3.97;2.40;;;13.00;99.90;;;;;;5033128;28;20025;-72
2022/09/16 03:25:17;;;;;;;3.70;2.40;;;13.10;99.90;;;;;;5033200;28;20033;-72
2022/09/16 03:28:06;;;;;;;3.88;2.70;;;13.10;99.90;;;;;;5032743;28;20523;-72
2022/09/16 03:30:41;;;;;;;4.25;2.15;;;13.10;99.90;;;;;;5033068;28;20037;-72
2022/09/16 03:33:18;;;;;;;6.07;2.33;;;13.10;99.90;;;;;;5033377;28;20025;-72
2022/09/16 03:35:47;;;;;;;4.18;2.17;;;13.20;99.90;;;;;;5033645;28;20490;-72
2022/09/16 03:38:15;;;;;;;4.63;2.60;;;13.10;99.90;;;;;;5033106;28;20451;-71
2022/09/16 03:40:41;;;;;;;4.90;2.90;;;13.10;99.90;;;;;;5033235;28;20091;-71
2022/09/16 03:43:15;;;;;;;4.38;2.92;;;13.00;99.90;;;;;;5031824;28;20034;-71
2022/09/16 03:45:42;;;;;;;4.43;3.00;;;13.00;99.90;;;;;;5032356;28;20044;-71
2022/09/16 03:48:10;;;;;;;4.43;2.60;;;13.00;99.90;;;;;;5033224;28;20072;-71
2022/09/16 03:50:36;;;;;;;4.63;2.90;;;13.00;99.90;;;;;;5033192;28;20037;-71
2022/09/16 03:53:02;;;;;;;5.05;3.13;;;13.00;99.90;;;;;;5032617;28;20030;-71
2022/09/16 03:55:28;;;;;;;4.32;2.88;;;13.00;99.90;;;;;;5031502;28;20124;-71
2022/09/16 03:57:54;;;;;;;5.95;3.33;;;13.00;99.90;;;;;;5033075;28;20469;-72
2022/09/16 04:00:20;;;;;;;7.97;2.88;;;13.00;99.90;;;;;;5031817;28;20474;-71
2022/09/16 04:02:46;;;;;;;4.50;2.75;;;13.00;99.90;;;;;;5031066;28;20084;-70
2022/09/16 04:05:11;;;;;;;5.25;2.85;;;13.00;99.90;;;;;;5031867;28;20030;-71
2022/09/16 04:07:37;;;;;;;3.80;2.90;;;13.00;99.90;;;;;;5033023;28;20030;-71
2022/09/16 04:10:05;;;;;;;6.82;3.28;;;13.00;99.90;;;;;;5032702;28;20581;-70
2022/09/16 04:12:30;;;;;;;5.25;3.13;;;13.00;99.90;;;;;;5032998;28;20455;-71
2022/09/16 04:14:56;;;;;;;5.50;2.60;;;13.00;99.90;;;;;;5032926;28;20138;-71
2022/09/16 04:17:22;;;;;;;4.38;3.15;;;13.00;99.90;;;;;;5054213;28;20017;-72
2022/09/16 04:19:48;;;;;;;5.18;2.72;;;13.00;99.90;;;;;;5055676;28;20435;-72
2022/09/16 04:22:14;;;;;;;4.63;3.08;;;13.10;99.90;;;;;;5055553;28;20055;-71
2022/09/16 04:24:40;;;;;;;4.07;2.88;;;13.10;99.90;;;;;;5055433;28;20037;-71
2022/09/16 04:27:06;;;;;;;4.72;3.15;;;13.10;99.90;;;;;;5055921;28;20037;-71
2022/09/16 04:29:31;;;;;;;5.57;3.80;;;13.10;99.90;;;;;;5071440;28;20159;-71
2022/09/16 04:31:57;;;;;;;7.72;4.93;;;13.20;99.90;;;;;;5055867;28;20178;-71
2022/09/16 04:34:23;;;;;;;6.65;4.45;;;13.10;99.90;;;;;;5055844;28;20033;-71
2022/09/16 04:36:49;;;;;;;7.50;5.13;;;13.10;99.90;;;;;;5056144;28;20504;-71
2022/09/16 04:39:15;;;;;;;9.77;5.95;;;13.10;99.90;;;;;;5055820;28;20031;-71
2022/09/16 04:41:40;;;;;;;8.75;5.55;;;13.10;99.90;;;;;;5054498;28;20024;-71
2022/09/16 04:44:06;;;;;;;9.95;4.43;;;13.00;99.90;;;;;;5053612;28;20033;-71
2022/09/16 04:46:32;;;;;;;6.60;4.28;;;13.10;99.90;;;;;;5053596;28;20040;-70
2022/09/16 04:48:59;;;;;;;8.00;4.45;;;13.00;99.90;;;;;;5053275;28;20040;-71
2022/09/16 04:51:26;;;;;;;8.55;4.85;;;13.00;99.90;;;;;;5053366;28;20040;-71
2022/09/16 04:53:53;;;;;;;11.32;4.10;;;13.00;99.90;;;;;;5053373;28;20031;-71
2022/09/16 04:56:23;;;;;;;5.85;3.65;;;13.00;99.90;;;;;;5053350;28;20492;-71
2022/09/16 04:58:51;;;;;;;3.60;2.92;;;13.00;99.90;;;;;;5054701;28;20035;-71
2022/09/16 05:01:22;;;;;;;5.65;3.53;;;13.00;99.90;;;;;;5055391;28;20025;-71
2022/09/16 05:03:51;;;;;;;5.57;3.60;;;13.00;99.90;;;;;;5055382;28;20056;-71
2022/09/16 05:06:19;;;;;;;5.80;4.18;;;13.00;99.90;;;;;;5055344;28;20025;-71
2022/09/16 05:08:45;;;;;;;6.55;4.13;;;13.00;99.90;;;;;;5055278;28;20054;-71
2022/09/16 05:11:13;;;;;;;6.90;4.10;;;13.00;99.90;;;;;;5055176;28;20033;-71
2022/09/16 05:13:39;;;;;;;7.07;4.07;;;12.90;99.90;;;;;;5055114;28;20025;-71
2022/09/16 05:16:16;;;;;;;5.47;3.60;;;12.80;99.90;;;;;;5055122;28;20029;-71
2022/09/16 05:18:43;;;;;;;5.10;3.40;;;12.80;99.90;;;;;;5055378;28;20078;-71
2022/09/16 05:21:12;;;;;;;6.78;3.67;;;12.80;99.90;;;;;;5055157;28;20021;-71
2022/09/16 05:23:39;;;;;;;6.18;3.55;;;12.80;99.90;;;;;;5054990;28;20382;-71
2022/09/16 05:26:23;;;;;;;5.25;3.42;;;12.80;99.90;;;;;;5054890;28;20032;-71
2022/09/16 05:28:49;;;;;;;6.72;4.43;;;12.80;99.90;;;;;;5053985;28;20036;-71
2022/09/16 05:31:26;;;;;;;14.32;8.68;;;12.80;99.90;;;;;;5054776;28;20048;-71
2022/09/16 05:33:56;;;;;;;40.10;21.60;;;12.80;99.90;;;;;;5054969;28;20033;-71
2022/09/16 05:36:23;;;;;;;54.55;31.25;;;12.80;99.90;;;;;;5054701;28;20071;-70
2022/09/16 05:38:49;;;;;;;53.53;32.60;;;12.80;99.90;;;;;;5054641;28;20382;-70
2022/09/16 05:41:15;;;;;;;11.93;7.10;;;12.80;99.90;;;;;;5054602;28;20025;-70
2022/09/16 05:43:41;;;;;;;15.65;7.85;;;12.80;99.90;;;;;;5054850;28;20029;-70
2022/09/16 05:46:07;;;;;;;16.98;11.60;;;12.70;99.90;;;;;;5054527;28;20029;-70
2022/09/16 05:48:34;;;;;;;9.50;6.60;;;12.80;99.90;;;;;;5054783;28;20017;-70
2022/09/16 05:51:06;;;;;;;9.95;6.93;;;12.70;99.90;;;;;;5054354;28;20025;-70
2022/09/16 05:53:33;;;;;;;9.70;5.75;;;12.70;99.90;;;;;;5069722;28;20029;-70
2022/09/16 05:56:02;;;;;;;8.10;4.30;;;12.70;99.90;;;;;;5054305;28;20025;-70
2022/09/16 05:58:29;;;;;;;6.70;4.78;;;12.70;99.90;;;;;;5054588;28;20035;-70
2022/09/16 06:01:23;;;;;;;9.93;5.30;;;12.70;99.90;;;;;;5054081;28;20049;-71
2022/09/16 06:03:50;;;;;;;9.32;4.88;;;12.70;99.90;;;;;;5053276;28;20041;-71
2022/09/16 06:06:30;;;;;;;7.30;5.38;;;12.70;99.90;;;;;;5054155;28;20025;-70
2022/09/16 06:09:04;;;;;;;7.72;4.90;;;12.80;99.90;;;;;;5054219;28;20035;-70
2022/09/16 06:11:29;;;;;;;9.00;5.55;;;12.70;99.90;;;;;;5054038;28;20035;-70
2022/09/16 06:13:58;;;;;;;9.38;5.75;;;12.60;99.90;;;;;;5054269;28;20032;-71
2022/09/16 06:16:26;;;;;;;10.05;6.05;;;12.60;99.90;;;;;;5053986;28;20023;-71
2022/09/16 06:18:56;;;;;;;10.60;6.18;;;12.60;99.90;;;;;;5054200;28;20029;-71
2022/09/16 06:21:22;;;;;;;7.72;5.60;;;12.50;99.90;;;;;;5054104;28;20029;-71
2022/09/16 06:23:48;;;;;;;8.60;5.60;;;12.60;99.90;;;;;;5053889;28;20057;-71
2022/09/16 06:26:17;;;;;;;8.43;6.63;;;12.60;99.90;;;;;;5053827;28;20493;-70
2022/09/16 06:28:43;;;;;;;13.48;7.28;;;12.60;99.90;;;;;;5053794;28;20028;-71
2022/09/16 06:31:38;;;;;;;9.70;6.03;;;12.60;99.90;;;;;;5053930;28;20033;-70
2022/09/16 06:34:06;;;;;;;7.97;5.50;;;12.50;99.90;;;;;;5049020;28;20484;-71
2022/09/16 06:36:35;;;;;;;7.05;5.35;;;12.50;99.90;;;;;;5053630;28;20036;-71
2022/09/16 06:39:01;;;;;;;8.23;4.72;;;12.60;99.90;;;;;;5053255;28;20104;-71
2022/09/16 06:41:27;;;;;;;7.18;4.82;;;12.60;99.90;;;;;;5053672;28;20500;-71
2022/09/16 06:43:52;;;;;;;6.65;4.25;;;12.60;99.90;;;;;;5054072;28;20024;-71
2022/09/16 06:46:21;;;;;;;7.10;4.80;;;12.60;99.90;;;;;;5053478;28;20025;-71
2022/09/16 06:48:53;;;;;;;7.43;4.53;;;12.60;99.90;;;;;;5053473;28;20048;-71
2022/09/16 06:51:21;;;;;;;5.90;4.43;;;12.60;99.90;;;;;;5053339;28;20079;-70
2022/09/16 06:53:48;;;;;;;6.35;4.50;;;12.60;99.90;;;;;;5053347;28;20469;-70
2022/09/16 06:56:16;;;;;;;5.80;4.05;;;12.60;99.90;;;;;;5053354;28;20113;-70
2022/09/16 06:58:46;;;;;;;8.27;5.80;;;12.50;99.90;;;;;;5053618;28;20025;-70
2022/09/16 07:01:16;;;;;;;8.23;5.77;;;12.60;99.90;;;;;;5053370;28;20033;-70
2022/09/16 07:03:45;;;;;;;7.27;5.37;;;12.50;99.90;;;;;;5052188;28;20497;-70
2022/09/16 07:06:12;;;;;;;8.98;5.43;;;12.50;99.90;;;;;;5053258;28;20033;-70
2022/09/16 07:08:38;;;;;;;7.30;5.28;;;12.50;99.90;;;;;;5053228;28;20036;-70
2022/09/16 07:11:14;;;;;;;9.00;5.63;;;12.50;99.90;;;;;;5051970;28;20047;-70
2022/09/16 07:13:41;;;;;;;9.15;5.43;;;12.50;99.90;;;;;;5068609;28;20035;-70
2022/09/16 07:16:09;;;;;;;8.25;5.55;;;12.50;99.90;;;;;;5053183;28;20027;-70
2022/09/16 07:18:36;;;;;;;8.40;6.03;;;12.60;99.90;;;;;;5053441;28;20134;-70
2022/09/16 07:21:06;;;;;;;10.00;6.85;;;12.60;99.90;;;;;;5053265;28;20029;-70
2022/09/16 07:23:34;;;;;;;10.15;6.30;;;12.60;99.90;;;;;;5053151;28;20036;-70
2022/09/16 07:26:01;;;;;;;9.82;6.85;;;12.60;99.90;;;;;;5053042;28;20108;-70
2022/09/16 07:28:26;;;;;;;9.10;6.55;;;12.60;99.90;;;;;;5053066;28;20036;-70
2022/09/16 07:30:52;;;;;;;8.23;6.00;;;12.70;99.90;;;;;;5053152;28;20029;-70
2022/09/16 07:33:18;;;;;;;8.43;5.97;;;12.70;99.90;;;;;;5068365;28;20084;-70
2022/09/16 07:35:43;;;;;;;19.98;11.85;;;12.70;99.90;;;;;;5052973;28;20079;-70
2022/09/16 07:38:10;;;;;;;25.42;15.82;;;12.70;99.90;;;;;;5035299;28;20021;-70
2022/09/16 07:40:39;;;;;;;30.50;15.95;;;12.80;99.90;;;;;;5053132;28;20469;-70
2022/09/16 07:43:05;;;;;;;15.18;8.73;;;12.80;99.90;;;;;;5053441;28;20033;-71
2022/09/16 07:45:31;;;;;;;8.52;5.95;;;12.90;99.90;;;;;;5052873;28;20033;-71
2022/09/16 07:47:57;;;;;;;6.60;4.45;;;12.90;99.90;;;;;;5052916;28;20025;-71
2022/09/16 07:50:22;;;;;;;5.55;4.25;;;12.90;99.90;;;;;;5053075;28;20373;-71
2022/09/16 07:52:52;;;;;;;6.80;3.67;;;12.90;99.90;;;;;;5071271;28;20055;-71
2022/09/16 07:55:18;;;;;;;5.68;4.05;;;13.00;99.90;;;;;;5056570;28;20025;-71
2022/09/16 07:57:44;;;;;;;5.38;3.65;;;13.00;99.90;;;;;;5056616;28;20025;-71
2022/09/16 08:00:11;;;;;;;4.93;3.35;;;13.00;99.90;;;;;;5057140;28;20520;-71
2022/09/16 08:02:37;;;;;;;5.15;3.85;;;13.10;99.90;;;;;;5056477;28;20033;-71
2022/09/16 08:05:03;;;;;;;6.65;4.53;;;13.10;99.90;;;;;;5056520;28;20033;-72
2022/09/16 08:07:28;;;;;;;7.07;4.22;;;13.20;99.90;;;;;;5071874;28;20485;-71
2022/09/16 08:09:54;;;;;;;6.30;3.72;;;13.20;99.90;;;;;;5056649;28;20456;-71
2022/09/16 08:12:20;;;;;;;5.47;3.53;;;13.30;99.90;;;;;;5056259;28;20032;-71
2022/09/16 08:14:45;;;;;;;5.32;4.03;;;13.30;99.90;;;;;;5056207;28;20025;-71
2022/09/16 08:17:15;;;;;;;7.60;4.30;;;13.40;99.90;;;;;;5056219;28;20540;-71
2022/09/16 08:19:40;;;;;;;6.07;3.90;;;13.50;99.90;;;;;;5056190;28;20021;-71
2022/09/16 08:22:06;;;;;;;7.53;4.43;;;13.50;99.90;;;;;;5056093;28;20136;-71
2022/09/16 08:24:32;;;;;;;5.75;3.55;;;13.50;99.90;;;;;;5056097;28;20056;-71
2022/09/16 08:26:58;;;;;;;6.50;4.18;;;13.60;99.90;;;;;;5056036;28;20040;-72
2022/09/16 08:29:24;;;;;;;6.07;4.63;;;13.50;99.90;;;;;;5056011;28;20067;-72
2022/09/16 08:31:50;;;;;;;6.35;4.60;;;13.50;99.90;;;;;;5055872;28;20055;-71
2022/09/16 08:34:16;;;;;;;5.80;4.88;;;13.50;99.90;;;;;;5055863;28;20033;-71
2022/09/16 08:36:42;;;;;;;7.18;5.00;;;13.60;99.90;;;;;;5056389;28;20503;-72
2022/09/16 08:39:09;;;;;;;7.63;4.80;;;13.70;99.90;;;;;;5071260;28;20036;-72
2022/09/16 08:41:55;;;;;;;9.38;4.53;;;13.70;99.90;;;;;;5055777;28;20401;-72
2022/09/16 08:44:49;;;;;;;5.32;3.95;;;13.80;99.90;;;;;;5057593;28;20025;-72
2022/09/16 08:47:27;;;;;;;6.03;3.72;;;13.80;99.90;;;;;;5055983;28;20059;-72
2022/09/16 08:49:54;;;;;;;6.95;4.35;;;13.80;99.90;;;;;;5055528;28;20056;-72
2022/09/16 08:52:31;;;;;;;6.50;4.07;;;13.80;99.90;;;;;;5055768;28;20142;-72
2022/09/16 08:55:30;;;;;;;4.78;3.38;;;13.80;99.90;;;;;;5055456;28;20544;-72
2022/09/16 08:58:09;;;;;;;6.60;4.03;;;13.90;99.90;;;;;;5055500;28;20032;-72
2022/09/16 09:00:36;;;;;;;5.78;3.78;;;13.90;99.90;;;;;;5055367;28;20032;-72
2022/09/16 09:03:32;;;;;;;5.85;4.10;;;13.90;99.90;;;;;;5054998;28;20028;-72
2022/09/16 09:06:00;;;;;;;5.70;4.07;;;14.00;99.90;;;;;;5055352;28;20100;-72
2022/09/16 09:08:46;;;;;;;4.95;3.63;;;14.10;99.90;;;;;;5055309;28;20061;-72
2022/09/16 09:11:33;;;;;;;4.97;3.00;;;14.10;99.90;;;;;;5055472;28;20532;-72
2022/09/16 09:14:09;;;;;;;6.32;4.00;;;14.20;99.90;;;;;;5055173;28;20025;-73
2022/09/16 09:16:58;;;;;;;5.53;3.78;;;14.40;99.90;;;;;;5055179;28;20485;-73
2022/09/16 09:19:47;;;;;;;7.38;3.92;;;14.50;99.90;;;;;;5055714;28;20028;-72
2022/09/16 09:22:40;;;;;;;5.07;3.78;;;14.60;99.90;;;;;;5055574;28;20021;-72
2022/09/16 09:25:05;;;;;;;7.18;4.40;;;14.70;99.90;;;;;;5055307;28;20032;-72
2022/09/16 09:28:09;;;;;;;5.80;4.07;;;14.80;99.90;;;;;;5055186;28;20381;-72
2022/09/16 09:30:42;;;;;;;6.57;4.50;;;15.00;99.90;;;;;;5055054;28;20021;-72
2022/09/16 09:33:37;;;;;;;5.55;3.72;;;15.00;99.90;;;;;;5055101;28;20569;-72
2022/09/16 09:36:44;;;;;;;6.30;3.55;;;15.10;99.90;;;;;;5070199;28;20486;-72
2022/09/16 09:39:28;;;;;;;5.22;3.80;;;15.30;99.90;;;;;;5033163;28;20025;-72
2022/09/16 09:42:01;;;;;;;5.80;3.05;;;15.50;99.90;;;;;;5032586;28;20455;-72
2022/09/16 09:44:47;;;;;;;5.80;3.10;;;15.50;99.90;;;;;;5046994;28;20033;-73
2022/09/16 09:47:39;;;;;;;5.25;3.17;;;15.50;99.90;;;;;;5054582;28;20155;-72
2022/09/16 09:50:23;;;;;;;5.55;3.55;;;15.50;99.90;;;;;;5054707;28;20448;-72
2022/09/16 09:53:10;;;;;;;4.32;3.00;;;15.50;99.90;;;;;;5054817;28;20023;-73
2022/09/16 09:55:37;;;;;;;8.02;3.13;;;15.50;99.90;;;;;;5054421;28;20083;-72
2022/09/16 09:58:23;;;;;;;4.97;3.10;;;15.60;99.90;;;;;;5054403;28;20032;-72
2022/09/16 10:00:51;;;;;;;4.82;3.45;;;15.80;99.90;;;;;;5054167;28;20435;-74
2022/09/16 10:03:18;;;;;;;5.18;3.58;;;15.90;99.90;;;;;;5054556;28;20033;-72
2022/09/16 10:05:45;;;;;;;5.05;3.53;;;15.90;99.90;;;;;;5054735;28;20469;-72
2022/09/16 10:08:19;;;;;;;4.18;3.20;;;16.10;99.90;;;;;;5054180;28;20091;-72
2022/09/16 10:10:57;;;;;;;5.13;3.30;;;16.20;99.90;;;;;;5054011;28;20025;-72
2022/09/16 10:13:24;;;;;;;5.25;2.80;;;16.30;99.90;;;;;;5053884;28;20066;-72
2022/09/16 10:15:54;;;;;;;4.32;2.80;;;16.40;99.90;;;;;;5053531;28;20444;-72
2022/09/16 10:18:31;;;;;;;4.55;2.90;;;16.50;99.90;;;;;;5054011;28;20028;-73
2022/09/16 10:21:03;;;;;;;4.13;2.67;;;16.50;99.90;;;;;;5054440;28;20021;-73
2022/09/16 10:23:29;;;;;;;4.47;3.08;;;16.50;99.90;;;;;;5053913;28;20413;-72
2022/09/16 10:26:07;;;;;;;4.18;3.05;;;16.50;99.90;;;;;;5053824;28;20453;-72
2022/09/16 10:28:33;;;;;;;6.00;3.50;;;16.60;99.90;;;;;;5069440;28;20487;-72
2022/09/16 10:30:59;;;;;;;5.45;3.72;;;16.70;99.90;;;;;;5069100;28;20053;-71
2022/09/16 10:33:35;;;;;;;6.72;3.20;;;16.70;99.90;;;;;;5054650;28;20104;-73
2022/09/16 10:36:07;;;;;;;5.22;3.20;;;16.60;99.90;;;;;;5054025;28;20017;-72
2022/09/16 10:38:43;;;;;;;;;;;16.60;99.90;;;;;;5069777;28;20381;-72
2022/09/16 10:41:16;;;;;;;4.50;2.83;;;16.60;99.90;;;;;;5054112;28;20007;-72
2022/09/16 10:43:52;;;;;;;6.70;4.13;;;16.70;99.90;;;;;;5053585;28;20039;-72
2022/09/16 10:46:19;;;;;;;5.75;3.65;;;16.80;99.90;;;;;;5053862;28;20025;-72
2022/09/16 10:48:46;;;;;;;5.63;3.35;;;16.80;99.90;;;;;;5053533;28;20035;-72
2022/09/16 10:51:27;;;;;;;5.57;3.42;;;16.90;99.90;;;;;;5053523;28;20389;-72
2022/09/16 10:53:58;;;;;;;5.97;3.17;;;17.00;99.90;;;;;;5053672;28;20029;-73
2022/09/16 10:56:46;;;;;;;5.80;3.50;;;17.00;99.90;;;;;;5053657;28;20489;-73
2022/09/16 10:59:13;;;;;;;5.18;3.58;;;17.00;99.90;;;;;;5054225;28;20417;-72
2022/09/16 11:01:47;;;;;;;3.90;2.92;;;17.00;99.90;;;;;;5039247;28;20037;-73
2022/09/16 11:04:37;;;;;;;4.10;2.50;;;17.00;99.90;;;;;;5030388;28;20022;-73
2022/09/16 11:07:03;;;;;;;4.65;2.35;;;17.10;99.90;;;;;;5031562;28;20029;-73
2022/09/16 11:09:43;;;;;;;3.58;2.28;;;17.20;99.90;;;;;;5031685;28;20025;-72
2022/09/16 11:12:36;;;;;;;3.73;2.70;;;17.20;99.90;;;;;;5031483;28;20040;-73
2022/09/16 11:15:37;;;;;;;3.88;2.38;;;17.20;99.90;;;;;;5031236;28;20276;-72
2022/09/16 11:18:30;;;;;;;3.95;2.50;;;17.20;99.90;;;;;;5008321;28;20033;-73
2022/09/16 11:21:23;;;;;;;4.22;2.72;;;17.30;99.90;;;;;;5031176;28;20029;-72
2022/09/16 11:24:01;;;;;;;4.57;2.67;;;17.30;99.90;;;;;;5030390;28;20083;-73
2022/09/16 11:26:50;;;;;;;4.63;2.50;;;17.30;99.90;;;;;;5035241;28;20030;-73
2022/09/16 11:29:29;;;;;;;5.13;2.70;;;17.30;99.90;;;;;;5036039;28;20109;-73
2022/09/16 11:32:26;;;;;;;4.85;2.50;;;17.30;99.90;;;;;;5037116;28;20017;-73
2022/09/16 11:34:52;;;;;;;4.50;2.92;;;17.40;99.90;;;;;;5037380;28;20033;-73
2022/09/16 11:37:46;;;;;;;4.07;2.13;;;17.50;99.90;;;;;;5035921;28;20021;-73
2022/09/16 11:40:38;;;;;;;2.88;2.38;;;17.60;99.90;;;;;;5031945;28;20037;-72
2022/09/16 11:43:21;;;;;;;;;;;17.70;99.90;;;;;;5035146;28;20497;-73
2022/09/16 11:46:29;;;;;;;4.57;2.40;;;17.70;99.90;;;;;;5024325;28;19945;-73
2022/09/16 11:49:07;;;;;;;4.65;2.20;;;17.60;99.90;;;;;;5026660;28;20040;-73
2022/09/16 11:51:50;;;;;;;4.55;2.72;;;17.60;99.90;;;;;;5039710;28;20063;-73
2022/09/16 11:54:54;;;;;;;6.65;2.55;;;17.70;99.90;;;;;;5053749;28;20025;-73
2022/09/16 11:57:29;;;;;;;4.07;2.20;;;17.80;99.90;;;;;;5056439;28;20029;-73
2022/09/16 12:00:05;;;;;;;4.70;2.17;;;17.80;99.90;;;;;;5055375;28;20036;-73
2022/09/16 12:02:51;;;;;;;2.97;1.83;;;17.90;99.90;;;;;;5056460;28;20112;-73
2022/09/16 12:05:38;;;;;;;4.43;2.45;;;17.90;99.90;;;;;;5050758;28;20031;-72
2022/09/16 12:08:11;;;;;;;5.53;2.20;;;17.90;99.90;;;;;;5016772;28;20033;-73
2022/09/16 12:11:00;;;;;;;3.75;2.10;;;17.90;99.90;;;;;;5016704;28;20018;-73
2022/09/16 12:13:37;;;;;;;4.13;2.30;;;17.80;99.90;;;;;;5016321;28;20034;-73
2022/09/16 12:16:11;;;;;;;4.63;2.35;;;17.80;99.90;;;;;;5016919;28;20105;-73
2022/09/16 12:18:55;;;;;;;3.45;2.20;;;17.80;99.90;;;;;;5016903;28;20458;-73
2022/09/16 12:21:39;;;;;;;4.93;2.58;;;17.80;99.90;;;;;;5016461;28;20421;-73
2022/09/16 12:24:29;;;;;;;3.00;2.17;;;17.80;99.90;;;;;;5015200;28;20474;-72
2022/09/16 12:27:12;;;;;;;7.00;4.43;;;17.80;99.60;;;;;;5015260;28;20036;-73
2022/09/16 12:29:48;;;;;;;5.97;3.50;;;17.90;99.40;;;;;;5016946;28;20088;-73
2022/09/16 12:32:42;;;;;;;5.10;2.40;;;17.90;99.90;;;;;;5016794;28;20045;-73
2022/09/16 12:35:20;;;;;;;3.65;2.20;;;17.90;99.90;;;;;;5016077;28;20098;-74
2022/09/16 12:37:51;;;;;;;3.35;2.35;;;18.20;99.10;;;;;;5024705;28;20539;-74
2022/09/16 12:40:24;;;;;;;3.50;2.00;;;18.40;98.90;;;;;;5035811;28;20026;-74
2022/09/16 12:43:04;;;;;;;3.05;2.00;;;18.60;99.90;;;;;;5035500;28;20440;-74
2022/09/16 12:45:32;;;;;;;3.90;1.98;;;18.80;99.90;;;;;;5036135;28;20104;-72
2022/09/16 12:48:29;;;;;;;4.55;2.10;;;19.00;99.90;;;;;;5035557;28;20021;-72
2022/09/16 12:51:10;;;;;;;5.30;2.08;;;19.00;99.90;;;;;;5037603;28;20029;-73
2022/09/16 12:54:00;;;;;;;3.42;2.10;;;19.00;99.90;;;;;;5035714;28;20017;-72
2022/09/16 12:56:25;;;;;;;5.63;2.33;;;18.90;98.40;;;;;;5034794;28;20021;-73
2022/09/16 12:59:22;;;;;;;3.85;2.50;;;19.00;99.90;;;;;;5036037;28;20528;-72
2022/09/16 13:02:17;;;;;;;5.07;2.90;;;19.10;99.90;;;;;;5029987;28;20026;-73
2022/09/16 13:04:50;;;;;;;4.93;2.42;;;19.00;99.90;;;;;;5028500;28;20037;-71
2022/09/16 13:07:23;;;;;;;3.40;2.40;;;18.90;99.90;;;;;;5043452;28;20100;-72
2022/09/16 13:10:03;;;;;;;3.92;2.30;;;18.80;99.50;;;;;;5043507;28;20047;-73
2022/09/16 13:12:29;;;;;;;3.35;2.13;;;18.70;99.90;;;;;;5046072;28;20459;-73
2022/09/16 13:14:59;;;;;;;3.42;2.30;;;18.80;99.90;;;;;;5041277;28;20482;-74
2022/09/16 13:17:39;;;;;;;3.72;2.03;;;18.70;99.90;;;;;;5035330;28;20045;-73
2022/09/16 13:20:16;;;;;;;4.32;2.10;;;18.70;99.90;;;;;;5034918;28;20017;-72
2022/09/16 13:22:47;;;;;;;5.05;2.30;;;18.70;99.90;;;;;;5034387;28;20029;-72